createdAt,value
2018-10-21T00:01:56.389Z,58.71
2018-10-21T00:04:24.018Z,58.72
2018-10-21T00:06:51.672Z,58.60
2018-10-21T00:09:19.297Z,58.02
2018-10-21T00:11:46.938Z,58.49
2018-10-21T00:14:14.570Z,58.44
2018-10-21T00:16:42.206Z,58.08
2018-10-21T00:19:09.873Z,58.51
2018-10-21T00:21:37.497Z,58.86
2018-10-21T00:24:05.441Z,57.96
2018-10-21T00:26:33.100Z,58.18
2018-10-21T00:29:00.750Z,58.09
2018-10-21T00:31:28.368Z,58.62
2018-10-21T00:33:56.003Z,58.64
2018-10-21T00:36:23.643Z,58.36
2018-10-21T00:38:51.257Z,58.23
2018-10-21T00:41:18.904Z,58.04
2018-10-21T00:43:46.541Z,58.10
2018-10-21T00:46:14.164Z,58.40
2018-10-21T00:48:41.809Z,58.87
2018-10-21T00:51:09.512Z,58.78
2018-10-21T00:53:37.089Z,58.86
2018-10-21T00:56:04.718Z,58.58
2018-10-21T00:58:32.584Z,58.13
2018-10-21T01:01:00.225Z,58.88
2018-10-21T01:03:27.858Z,58.63
2018-10-21T01:05:55.501Z,58.69
2018-10-21T01:08:23.120Z,58.43
2018-10-21T01:10:50.782Z,58.41
2018-10-21T01:13:18.405Z,58.82
2018-10-21T01:15:46.027Z,58.94
2018-10-21T01:18:13.651Z,58.87
2018-10-21T01:20:41.291Z,58.34
2018-10-21T01:23:08.920Z,58.86
2018-10-21T01:25:36.549Z,58.85
2018-10-21T01:28:04.183Z,58.04
2018-10-21T01:30:31.810Z,58.11
2018-10-21T01:32:59.456Z,58.36
2018-10-21T01:35:27.102Z,58.06
2018-10-21T01:37:54.761Z,58.67
2018-10-21T01:40:24.818Z,58.76
2018-10-21T01:42:52.632Z,58.51
2018-10-21T01:45:20.278Z,58.76
2018-10-21T01:47:47.990Z,58.04
2018-10-21T01:50:15.648Z,58.29
2018-10-21T01:52:43.294Z,58.03
2018-10-21T01:55:10.933Z,58.23
2018-10-21T01:57:38.552Z,58.12
2018-10-21T02:00:06.243Z,58.90
2018-10-21T02:02:33.901Z,58.58
2018-10-21T02:05:01.630Z,58.12
2018-10-21T02:07:29.994Z,58.82
2018-10-21T02:09:57.737Z,58.53
2018-10-21T02:12:25.428Z,58.34
2018-10-21T02:14:53.053Z,58.37
2018-10-21T02:17:20.685Z,58.32
2018-10-21T02:19:48.348Z,58.12
2018-10-21T02:22:15.971Z,58.87
2018-10-21T02:24:43.592Z,58.88
2018-10-21T02:27:11.271Z,58.12
2018-10-21T02:29:38.892Z,58.19
2018-10-21T02:32:06.818Z,58.82
2018-10-21T02:34:34.453Z,58.59
2018-10-21T02:37:02.077Z,58.42
2018-10-21T02:39:29.738Z,58.76
2018-10-21T02:41:57.561Z,58.70
2018-10-21T02:44:25.532Z,58.19
2018-10-21T02:46:54.800Z,58.26
2018-10-21T02:49:22.819Z,58.55
2018-10-21T02:51:55.842Z,58.17
2018-10-21T02:54:24.681Z,58.73
2018-10-21T02:56:52.405Z,58.91
2018-10-21T02:59:20.029Z,58.21
2018-10-21T03:01:47.685Z,58.24
2018-10-21T03:04:15.318Z,58.49
2018-10-21T03:06:42.924Z,58.14
2018-10-21T03:09:10.578Z,59.02
2018-10-21T03:11:38.234Z,58.19
2018-10-21T03:14:05.892Z,58.66
2018-10-21T03:16:33.519Z,58.19
2018-10-21T03:19:01.138Z,58.50
2018-10-21T03:21:28.761Z,58.38
2018-10-21T03:23:56.396Z,58.27
2018-10-21T03:26:24.034Z,58.20
2018-10-21T03:28:51.677Z,58.23
2018-10-21T03:31:19.288Z,58.98
2018-10-21T03:33:46.987Z,58.42
2018-10-21T03:36:14.616Z,58.75
2018-10-21T03:38:42.241Z,58.22
2018-10-21T03:41:09.978Z,58.27
2018-10-21T03:43:37.621Z,58.23
2018-10-21T03:46:05.409Z,58.59
2018-10-21T03:48:32.941Z,58.73
2018-10-21T03:51:00.593Z,58.27
2018-10-21T03:53:28.225Z,58.51
2018-10-21T03:55:55.890Z,58.29
2018-10-21T03:58:23.542Z,58.20
2018-10-21T04:00:51.158Z,58.79
2018-10-21T04:03:18.789Z,58.77
2018-10-21T04:05:46.413Z,58.99
2018-10-21T04:08:14.036Z,58.35
2018-10-21T04:10:41.686Z,58.33
2018-10-21T04:13:09.304Z,58.77
2018-10-21T04:15:36.951Z,59.07
2018-10-21T04:18:04.573Z,58.64
2018-10-21T04:20:32.195Z,59.05
2018-10-21T04:23:01.033Z,58.53
2018-10-21T04:25:29.625Z,58.51
2018-10-21T04:27:58.161Z,58.81
2018-10-21T04:30:33.390Z,58.75
2018-10-21T04:34:07.975Z,58.32
2018-10-21T04:36:35.900Z,58.24
2018-10-21T04:40:07.954Z,58.32
2018-10-21T04:42:35.570Z,58.37
2018-10-21T04:45:03.646Z,59.04
2018-10-21T04:47:31.618Z,59.05
2018-10-21T04:49:59.261Z,58.96
2018-10-21T04:52:27.654Z,59.00
2018-10-21T04:54:55.402Z,58.47
2018-10-21T04:57:23.033Z,58.96
2018-10-21T04:59:50.652Z,58.98
2018-10-21T05:02:18.302Z,58.87
2018-10-21T05:04:45.922Z,58.87
2018-10-21T05:07:13.532Z,58.37
2018-10-21T05:09:41.153Z,58.95
2018-10-21T05:12:08.791Z,59.04
2018-10-21T05:14:36.424Z,58.64
2018-10-21T05:17:04.051Z,58.58
2018-10-21T05:19:31.689Z,58.35
2018-10-21T05:21:59.365Z,59.18
2018-10-21T05:24:26.970Z,58.44
2018-10-21T05:26:54.594Z,58.55
2018-10-21T05:29:22.215Z,58.47
2018-10-21T05:31:49.856Z,59.18
2018-10-21T05:34:17.533Z,58.94
2018-10-21T05:36:45.170Z,58.99
2018-10-21T05:39:12.800Z,59.20
2018-10-21T05:41:40.801Z,58.33
2018-10-21T05:44:08.474Z,58.71
2018-10-21T05:46:44.601Z,58.46
2018-10-21T05:49:12.216Z,58.44
2018-10-21T05:51:41.278Z,58.42
2018-10-21T05:54:10.286Z,58.49
2018-10-21T05:56:38.552Z,58.70
2018-10-21T05:59:06.501Z,58.38
2018-10-21T06:01:34.135Z,58.58
2018-10-21T06:04:01.798Z,58.42
2018-10-21T06:06:29.394Z,58.55
2018-10-21T06:08:57.016Z,59.04
2018-10-21T06:11:24.701Z,59.08
2018-10-21T06:13:52.330Z,59.13
2018-10-21T06:16:19.999Z,58.38
2018-10-21T06:18:47.601Z,58.99
2018-10-21T06:21:15.224Z,58.43
2018-10-21T06:23:42.877Z,58.88
2018-10-21T06:26:10.478Z,58.93
2018-10-21T06:28:38.109Z,58.41
2018-10-21T06:31:05.750Z,58.78
2018-10-21T06:33:33.384Z,58.30
2018-10-21T06:36:01.030Z,58.52
2018-10-21T06:38:28.653Z,58.60
2018-10-21T06:40:56.273Z,58.76
2018-10-21T06:43:23.906Z,58.50
2018-10-21T06:45:51.547Z,58.31
2018-10-21T06:48:19.220Z,58.27
2018-10-21T06:50:46.832Z,59.00
2018-10-21T06:53:14.471Z,58.38
2018-10-21T06:55:42.088Z,58.32
2018-10-21T06:58:09.726Z,58.30
2018-10-21T07:00:37.398Z,58.12
2018-10-21T07:03:05.148Z,58.54
2018-10-21T07:05:38.466Z,58.85
2018-10-21T07:08:06.083Z,58.64
2018-10-21T07:10:33.706Z,58.95
2018-10-21T07:13:01.325Z,58.53
2018-10-21T07:15:29.023Z,58.79
2018-10-21T07:17:56.601Z,58.16
2018-10-21T07:20:24.208Z,58.38
2018-10-21T07:22:51.852Z,57.76
2018-10-21T07:25:19.465Z,57.73
2018-10-21T07:27:47.111Z,57.79
2018-10-21T07:30:14.732Z,58.07
2018-10-21T07:32:43.188Z,57.55
2018-10-21T07:35:13.217Z,57.07
2018-10-21T07:37:41.601Z,57.23
2018-10-21T07:40:09.899Z,57.59
2018-10-21T07:42:37.540Z,56.81
2018-10-21T07:45:05.524Z,57.20
2018-10-21T07:47:33.158Z,57.64
2018-10-21T07:50:01.137Z,57.35
2018-10-21T07:52:28.791Z,56.94
2018-10-21T07:54:56.410Z,57.46
2018-10-21T07:57:24.029Z,56.60
2018-10-21T07:59:51.699Z,56.93
2018-10-21T08:02:19.324Z,57.40
2018-10-21T08:04:46.936Z,56.61
2018-10-21T08:08:21.025Z,57.46
2018-10-21T08:10:59.445Z,57.14
2018-10-21T08:13:27.827Z,57.41
2018-10-21T08:15:55.557Z,57.46
2018-10-21T08:18:23.152Z,56.97
2018-10-21T08:20:51.342Z,56.60
2018-10-21T08:23:19.589Z,56.84
2018-10-21T08:25:48.681Z,57.15
2018-10-21T08:28:16.383Z,57.11
2018-10-21T08:30:43.962Z,56.83
2018-10-21T08:33:11.593Z,56.45
2018-10-21T08:35:39.238Z,56.61
2018-10-21T08:38:06.894Z,56.36
2018-10-21T08:40:34.918Z,56.64
2018-10-21T08:43:02.569Z,56.37
2018-10-21T08:45:30.197Z,56.64
2018-10-21T08:47:57.834Z,56.42
2018-10-21T08:50:25.520Z,57.17
2018-10-21T08:52:53.162Z,57.16
2018-10-21T08:55:20.793Z,57.21
2018-10-21T08:57:48.496Z,57.05
2018-10-21T09:00:17.379Z,56.49
2018-10-21T09:02:45.352Z,56.29
2018-10-21T09:05:14.353Z,57.10
2018-10-21T09:07:42.505Z,56.40
2018-10-21T09:10:11.717Z,57.15
2018-10-21T09:12:39.593Z,57.20
2018-10-21T09:15:08.398Z,56.53
2018-10-21T09:17:36.034Z,56.48
2018-10-21T09:20:03.666Z,56.52
2018-10-21T09:22:31.302Z,56.83
2018-10-21T09:24:58.986Z,57.28
2018-10-21T09:27:26.671Z,57.32
2018-10-21T09:29:54.288Z,57.54
2018-10-21T09:32:22.140Z,56.46
2018-10-21T09:34:49.761Z,56.89
2018-10-21T09:37:17.433Z,56.60
2018-10-21T09:39:45.041Z,56.55
2018-10-21T09:42:12.688Z,57.52
2018-10-21T09:44:40.365Z,57.01
2018-10-21T09:47:07.985Z,56.47
2018-10-21T09:49:35.620Z,56.76
2018-10-21T09:52:03.314Z,56.52
2018-10-21T09:54:30.931Z,57.13
2018-10-21T09:56:58.547Z,56.97
2018-10-21T09:59:26.180Z,56.57
2018-10-21T10:01:59.029Z,56.84
2018-10-21T10:04:26.743Z,57.44
2018-10-21T10:06:54.484Z,56.79
2018-10-21T10:09:22.178Z,56.88
2018-10-21T10:11:49.800Z,56.62
2018-10-21T10:14:17.428Z,56.86
2018-10-21T10:16:45.057Z,57.14
2018-10-21T10:19:12.785Z,56.94
2018-10-21T10:21:40.345Z,57.25
2018-10-21T10:24:07.986Z,57.22
2018-10-21T10:26:35.634Z,56.77
2018-10-21T10:29:03.251Z,57.55
2018-10-21T10:31:30.904Z,56.78
2018-10-21T10:33:58.537Z,56.77
2018-10-21T10:36:26.157Z,57.25
2018-10-21T10:38:53.777Z,57.60
2018-10-21T10:41:21.401Z,57.30
2018-10-21T10:43:49.063Z,56.85
2018-10-21T10:46:16.689Z,56.78
2018-10-21T10:48:44.328Z,56.82
2018-10-21T10:51:11.962Z,57.08
2018-10-21T10:53:39.588Z,57.76
2018-10-21T10:56:07.253Z,57.64
2018-10-21T10:58:34.882Z,57.17
2018-10-21T11:01:02.629Z,57.06
2018-10-21T11:03:30.253Z,57.75
2018-10-21T11:05:57.882Z,56.97
2018-10-21T11:08:25.510Z,57.21
2018-10-21T11:10:53.125Z,56.87
2018-10-21T11:13:20.745Z,57.48
2018-10-21T11:15:48.371Z,57.10
2018-10-21T11:18:15.993Z,57.34
2018-10-21T11:20:43.609Z,56.88
2018-10-21T11:23:11.282Z,56.93
2018-10-21T11:25:38.906Z,56.96
2018-10-21T11:28:06.599Z,57.01
2018-10-21T11:30:34.176Z,56.99
2018-10-21T11:33:01.805Z,57.18
2018-10-21T11:35:29.435Z,57.41
2018-10-21T11:37:57.086Z,57.08
2018-10-21T11:40:24.696Z,57.00
2018-10-21T11:42:52.355Z,57.24
2018-10-21T11:45:20.037Z,57.83
2018-10-21T11:47:47.670Z,57.57
2018-10-21T11:50:15.301Z,57.35
2018-10-21T11:52:42.990Z,57.43
2018-10-21T11:55:10.901Z,56.91
2018-10-21T11:57:38.529Z,57.63
2018-10-21T12:00:06.804Z,57.11
2018-10-21T12:02:34.449Z,56.82
2018-10-21T12:05:02.076Z,57.17
2018-10-21T12:07:29.712Z,57.33
2018-10-21T12:09:57.385Z,56.96
2018-10-21T12:12:25.009Z,57.16
2018-10-21T12:14:52.648Z,57.54
2018-10-21T12:17:20.328Z,57.63
2018-10-21T12:19:47.994Z,56.98
2018-10-21T12:22:15.707Z,57.20
2018-10-21T12:24:43.257Z,57.02
2018-10-21T12:27:10.905Z,56.86
2018-10-21T12:29:38.524Z,57.28
2018-10-21T12:32:06.140Z,57.40
2018-10-21T12:34:33.762Z,56.87
2018-10-21T12:37:01.407Z,57.14
2018-10-21T12:39:29.042Z,57.04
2018-10-21T12:41:56.669Z,56.86
2018-10-21T12:44:24.289Z,57.36
2018-10-21T12:46:51.940Z,57.61
2018-10-21T12:49:19.721Z,57.05
2018-10-21T12:51:47.256Z,57.61
2018-10-21T12:54:14.995Z,57.34
2018-10-21T12:56:42.534Z,57.27
2018-10-21T12:59:10.157Z,57.47
2018-10-21T13:01:37.820Z,57.55
2018-10-21T13:04:05.610Z,57.52
2018-10-21T13:06:33.228Z,57.47
2018-10-21T13:09:00.857Z,57.00
2018-10-21T13:11:28.489Z,57.66
2018-10-21T13:13:56.129Z,57.21
2018-10-21T13:16:23.809Z,57.12
2018-10-21T13:18:51.462Z,57.67
2018-10-21T13:21:19.077Z,57.20
2018-10-21T13:23:46.712Z,56.89
2018-10-21T13:26:14.333Z,57.46
2018-10-21T13:28:42.025Z,57.36
2018-10-21T13:31:09.701Z,57.35
2018-10-21T13:33:37.333Z,56.88
2018-10-21T13:36:05.184Z,57.30
2018-10-21T13:38:32.853Z,56.93
2018-10-21T13:41:00.526Z,57.00
2018-10-21T13:43:28.182Z,57.46
2018-10-21T13:45:55.890Z,57.73
2018-10-21T13:48:23.447Z,57.00
2018-10-21T13:50:51.078Z,57.19
2018-10-21T13:53:18.700Z,56.98
2018-10-21T13:55:46.322Z,57.53
2018-10-21T13:58:13.959Z,57.71
2018-10-21T14:00:41.713Z,57.00
2018-10-21T14:03:09.276Z,57.20
2018-10-21T14:05:36.884Z,57.47
2018-10-21T14:08:04.529Z,57.11
2018-10-21T14:10:32.956Z,56.94
2018-10-21T14:13:00.631Z,57.66
2018-10-21T14:15:28.237Z,57.26
2018-10-21T14:17:55.860Z,56.93
2018-10-21T14:20:23.486Z,56.94
2018-10-21T14:22:51.092Z,57.00
2018-10-21T14:25:18.740Z,57.39
2018-10-21T14:27:46.429Z,56.95
2018-10-21T14:30:14.124Z,57.80
2018-10-21T14:32:41.677Z,57.84
2018-10-21T14:35:09.917Z,57.62
2018-10-21T14:37:37.897Z,56.90
2018-10-21T14:40:06.570Z,57.35
2018-10-21T14:42:34.197Z,57.52
2018-10-21T14:45:01.868Z,57.62
2018-10-21T14:47:29.473Z,57.87
2018-10-21T14:49:57.106Z,57.92
2018-10-21T14:52:24.757Z,57.83
2018-10-21T14:54:52.372Z,57.32
2018-10-21T14:57:20.004Z,57.40
2018-10-21T14:59:47.620Z,57.36
2018-10-21T15:02:15.356Z,57.35
2018-10-21T15:04:42.993Z,57.47
2018-10-21T15:07:10.618Z,57.35
2018-10-21T15:09:38.317Z,57.92
2018-10-21T15:12:05.992Z,57.36
2018-10-21T15:14:33.629Z,57.09
2018-10-21T15:17:01.250Z,57.32
2018-10-21T15:19:28.877Z,57.18
2018-10-21T15:21:56.522Z,57.03
2018-10-21T15:24:24.162Z,57.27
2018-10-21T15:26:51.847Z,57.75
2018-10-21T15:29:19.470Z,57.22
2018-10-21T15:31:47.127Z,57.12
2018-10-21T15:34:14.808Z,57.98
2018-10-21T15:36:42.508Z,57.95
2018-10-21T15:39:10.951Z,57.55
2018-10-21T15:41:38.813Z,57.25
2018-10-21T15:44:06.585Z,57.54
2018-10-21T15:46:34.176Z,57.30
2018-10-21T15:49:01.941Z,57.63
2018-10-21T15:51:29.457Z,57.42
2018-10-21T15:53:57.172Z,58.38
2018-10-21T15:56:24.821Z,58.30
2018-10-21T15:58:52.440Z,58.27
2018-10-21T16:01:20.128Z,58.29
2018-10-21T16:03:47.902Z,57.65
2018-10-21T16:06:15.449Z,57.59
2018-10-21T16:08:43.113Z,58.17
2018-10-21T16:11:10.751Z,58.36
2018-10-21T16:13:38.484Z,57.59
2018-10-21T16:16:06.402Z,58.16
2018-10-21T16:18:34.017Z,57.58
2018-10-21T16:21:01.670Z,58.01
2018-10-21T16:23:29.309Z,57.53
2018-10-21T16:25:57.006Z,57.52
2018-10-21T16:28:24.690Z,57.48
2018-10-21T16:30:52.265Z,58.24
2018-10-21T16:33:19.882Z,58.21
2018-10-21T16:35:47.493Z,58.00
2018-10-21T16:38:15.128Z,57.86
2018-10-21T16:40:42.771Z,57.82
2018-10-21T16:43:10.421Z,58.23
2018-10-21T16:45:38.037Z,58.19
2018-10-21T16:48:05.712Z,57.49
2018-10-21T16:50:37.736Z,57.45
2018-10-21T16:53:01.008Z,57.36
2018-10-21T16:55:28.568Z,58.25
2018-10-21T16:57:56.184Z,57.50
2018-10-21T17:00:23.970Z,58.20
2018-10-21T17:02:51.502Z,57.50
2018-10-21T17:05:19.127Z,57.56
2018-10-21T17:07:46.912Z,57.46
2018-10-21T17:10:14.771Z,58.17
2018-10-21T17:12:42.072Z,58.15
2018-10-21T17:15:10.589Z,57.46
2018-10-21T17:17:38.737Z,57.47
2018-10-21T17:20:08.073Z,57.95
2018-10-21T17:22:35.718Z,58.29
2018-10-21T17:25:03.379Z,58.20
2018-10-21T17:27:31.002Z,57.57
2018-10-21T17:29:58.628Z,57.43
2018-10-21T17:32:26.290Z,58.10
2018-10-21T17:34:53.958Z,58.13
2018-10-21T17:37:21.582Z,57.50
2018-10-21T17:39:49.204Z,58.14
2018-10-21T17:42:16.863Z,58.14
2018-10-21T17:44:44.495Z,57.54
2018-10-21T17:47:12.174Z,58.05
2018-10-21T17:49:39.806Z,58.04
2018-10-21T17:52:07.437Z,58.00
2018-10-21T17:54:35.145Z,57.84
2018-10-21T17:57:02.768Z,58.10
2018-10-21T17:59:30.425Z,57.49
2018-10-21T18:01:58.662Z,57.85
2018-10-21T18:04:27.138Z,58.08
2018-10-21T18:06:54.904Z,58.16
2018-10-21T18:09:22.428Z,57.36
2018-10-21T18:11:50.081Z,57.60
2018-10-21T18:14:17.722Z,58.13
2018-10-21T18:16:45.346Z,57.94
2018-10-21T18:19:13.003Z,57.43
2018-10-21T18:21:40.630Z,57.42
2018-10-21T18:24:08.293Z,58.01
2018-10-21T18:26:35.917Z,57.98
2018-10-21T18:29:03.660Z,57.55
2018-10-21T18:31:31.410Z,57.96
2018-10-21T18:33:59.033Z,57.24
2018-10-21T18:36:26.686Z,57.72
2018-10-21T18:38:54.345Z,57.98
2018-10-21T18:41:21.960Z,57.95
2018-10-21T18:43:49.576Z,57.90
2018-10-21T18:46:17.271Z,57.60
2018-10-21T18:48:44.947Z,57.18
2018-10-21T18:51:12.578Z,57.91
2018-10-21T18:53:40.285Z,58.02
2018-10-21T18:56:07.950Z,57.95
2018-10-21T18:58:35.643Z,57.12
2018-10-21T19:01:03.292Z,57.16
2018-10-21T19:03:30.926Z,57.66
2018-10-21T19:05:58.547Z,57.13
2018-10-21T19:08:26.173Z,57.86
2018-10-21T19:10:53.821Z,57.41
2018-10-21T19:13:21.496Z,57.15
2018-10-21T19:15:49.088Z,57.32
2018-10-21T19:18:16.722Z,57.34
2018-10-21T19:20:44.361Z,57.63
2018-10-21T19:23:12.001Z,57.81
2018-10-21T19:25:39.634Z,57.13
2018-10-21T19:28:07.309Z,57.81
2018-10-21T19:30:34.954Z,57.85
2018-10-21T19:33:02.576Z,57.81
2018-10-21T19:35:30.204Z,58.09
2018-10-21T19:37:57.866Z,57.80
2018-10-21T19:40:25.514Z,57.55
2018-10-21T19:42:53.183Z,57.74
2018-10-21T19:45:20.911Z,57.11
2018-10-21T19:47:48.536Z,57.84
2018-10-21T19:50:16.902Z,57.56
2018-10-21T19:52:44.770Z,57.57
2018-10-21T19:55:12.895Z,57.56
2018-10-21T19:57:40.509Z,56.96
2018-10-21T20:00:09.993Z,57.86
2018-10-21T20:02:37.627Z,57.11
2018-10-21T20:05:05.620Z,57.85
2018-10-21T20:07:33.279Z,57.50
2018-10-21T20:10:00.960Z,57.90
2018-10-21T20:12:28.565Z,57.87
2018-10-21T20:14:56.181Z,58.06
2018-10-21T20:17:23.852Z,57.71
2018-10-21T20:19:51.480Z,57.98
2018-10-21T20:22:19.121Z,57.92
2018-10-21T20:24:46.746Z,58.07
2018-10-21T20:27:14.385Z,57.91
2018-10-21T20:29:41.996Z,57.98
2018-10-21T20:32:09.617Z,57.90
2018-10-21T20:34:37.249Z,57.93
2018-10-21T20:37:04.900Z,57.96
2018-10-21T20:39:32.525Z,57.41
2018-10-21T20:42:00.200Z,57.74
2018-10-21T20:44:27.841Z,57.28
2018-10-21T20:46:55.525Z,57.98
2018-10-21T20:49:23.169Z,57.96
2018-10-21T20:51:50.792Z,57.45
2018-10-21T20:54:18.506Z,57.42
2018-10-21T20:56:46.096Z,57.81
2018-10-21T20:59:13.732Z,58.01
2018-10-21T21:01:41.360Z,58.09
2018-10-21T21:04:09.039Z,57.43
2018-10-21T21:06:36.654Z,58.00
2018-10-21T21:09:06.110Z,57.78
2018-10-21T21:11:33.746Z,58.02
2018-10-21T21:14:01.443Z,57.34
2018-10-21T21:16:29.145Z,57.53
2018-10-21T21:18:56.768Z,58.13
2018-10-21T21:21:24.411Z,57.85
2018-10-21T21:23:52.045Z,58.08
2018-10-21T21:26:19.707Z,58.04
2018-10-21T21:28:47.341Z,57.37
2018-10-21T21:31:14.985Z,58.05
2018-10-21T21:33:42.637Z,57.35
2018-10-21T21:36:10.351Z,58.04
2018-10-21T21:38:37.995Z,57.31
2018-10-21T21:41:05.638Z,57.53
2018-10-21T21:43:33.265Z,57.94
2018-10-21T21:46:00.900Z,57.34
2018-10-21T21:48:28.525Z,57.78
2018-10-21T21:50:56.205Z,57.28
2018-10-21T21:53:23.816Z,58.02
2018-10-21T21:55:51.441Z,57.73
2018-10-21T21:58:19.070Z,57.36
2018-10-21T22:00:46.708Z,57.55
2018-10-21T22:03:14.336Z,57.51
2018-10-21T22:05:41.952Z,57.87
2018-10-21T22:08:09.621Z,57.50
2018-10-21T22:10:37.265Z,57.40
2018-10-21T22:13:05.095Z,57.93
2018-10-21T22:15:32.712Z,57.30
2018-10-21T22:18:00.405Z,58.07
2018-10-21T22:20:28.025Z,57.31
2018-10-21T22:22:55.662Z,57.90
2018-10-21T22:25:23.303Z,57.89
2018-10-21T22:27:50.933Z,57.43
2018-10-21T22:30:18.568Z,58.11
2018-10-21T22:32:46.197Z,57.85
2018-10-21T22:35:13.830Z,57.47
2018-10-21T22:37:41.467Z,57.60
2018-10-21T22:40:09.174Z,58.08
2018-10-21T22:42:37.145Z,58.21
2018-10-21T22:45:05.549Z,57.72
2018-10-21T22:47:33.178Z,58.14
2018-10-21T22:50:00.836Z,58.11
2018-10-21T22:52:28.492Z,57.63
2018-10-21T22:54:56.123Z,57.71
2018-10-21T22:57:23.767Z,57.58
2018-10-21T22:59:51.394Z,57.80
2018-10-21T23:02:19.051Z,58.09
2018-10-21T23:04:47.244Z,57.95
2018-10-21T23:07:14.893Z,58.02
2018-10-21T23:09:42.527Z,57.83
2018-10-21T23:12:10.197Z,58.19
2018-10-21T23:14:38.078Z,57.32
2018-10-21T23:17:05.715Z,57.34
2018-10-21T23:19:41.264Z,57.39
2018-10-21T23:22:08.996Z,57.31
2018-10-21T23:24:37.420Z,57.43
2018-10-21T23:27:05.157Z,57.84
2018-10-21T23:29:32.789Z,57.98
2018-10-21T23:32:00.733Z,57.68
2018-10-21T23:34:28.439Z,57.75
2018-10-21T23:36:56.576Z,58.24
2018-10-21T23:39:24.309Z,57.44
2018-10-21T23:41:51.955Z,57.40
2018-10-21T23:44:19.581Z,58.07
2018-10-21T23:46:47.314Z,57.54
2018-10-21T23:49:15.160Z,57.96
2018-10-21T23:51:42.809Z,57.45
2018-10-21T23:54:10.600Z,57.53
2018-10-21T23:56:38.312Z,58.21
2018-10-21T23:59:06.228Z,58.06
